Terminal Aerodrome Forecast
Issued by NWS

Home | Current Version | Previous Version | Graphics & Text | Print | Product List | Glossary On
Versions: 1 2 3 4 5 6 7 8 9 10 11 12 13 14 15 16 17 18 19 20 21 22 23 24 25 26
000
FTUS43 KLOT 241944 AAA
TAFGYY
TAF AMD
KGYY 241944Z 2420/2518 18013G21KT P6SM SCT100 BKN200
     FM242130 24014G22KT P6SM VCTS SCT025 BKN040CB
      TEMPO 2422/2424 2SM TSRA BKN025CB OVC040
     FM250100 26008KT P6SM SCT025 BKN200
     FM250600 30007KT P6SM SCT200
     FM251400 33008KT P6SM SCT250=

USA.gov is the U.S. government's official web portal to all federal, state and local government web resources and services.